createdAt,value
2019-03-25T00:00:31.280Z,1.20
2019-03-25T00:03:04.242Z,1.02
2019-03-25T00:05:38.042Z,1.00
2019-03-25T00:08:29.676Z,1.02
2019-03-25T00:11:02.957Z,1.07
2019-03-25T00:13:37.153Z,1.00
2019-03-25T00:16:09.949Z,1.17
2019-03-25T00:18:39.512Z,1.02
2019-03-25T00:21:26.321Z,1.47
2019-03-25T00:24:13.575Z,1.20
2019-03-25T00:27:04.761Z,1.10
2019-03-25T00:29:51.327Z,1.30
2019-03-25T00:32:38.208Z,1.22
2019-03-25T00:35:24.856Z,1.12
2019-03-25T00:38:11.713Z,1.12
2019-03-25T00:40:58.664Z,1.20
2019-03-25T00:43:45.167Z,1.10
2019-03-25T00:46:32.293Z,1.05
2019-03-25T00:49:19.315Z,1.40
2019-03-25T00:52:06.833Z,1.20
2019-03-25T00:54:53.804Z,1.05
2019-03-25T00:57:40.586Z,1.17
2019-03-25T01:00:27.243Z,1.07
2019-03-25T01:03:13.771Z,1.05
2019-03-25T01:06:00.448Z,1.17
2019-03-25T01:08:47.267Z,1.00
2019-03-25T01:11:34.158Z,0.90
2019-03-25T01:14:20.927Z,1.20
2019-03-25T01:17:08.919Z,1.10
2019-03-25T01:19:55.804Z,1.20
2019-03-25T01:22:42.171Z,1.45
2019-03-25T01:25:29.104Z,1.27
2019-03-25T01:28:16.076Z,1.30
2019-03-25T01:31:02.883Z,1.37
2019-03-25T01:33:49.196Z,1.40
2019-03-25T01:36:36.346Z,1.30
2019-03-25T01:39:23.133Z,1.25
2019-03-25T01:42:11.450Z,1.12
2019-03-25T01:44:58.631Z,1.12
2019-03-25T01:47:45.731Z,1.35
2019-03-25T01:50:34.052Z,1.42
2019-03-25T01:53:20.984Z,1.27
2019-03-25T01:56:07.807Z,1.40
2019-03-25T01:58:54.550Z,1.30
2019-03-25T02:01:41.467Z,1.50
2019-03-25T02:04:28.248Z,1.45
2019-03-25T02:07:16.093Z,1.20
2019-03-25T02:10:03.637Z,1.35
2019-03-25T02:12:50.512Z,1.40
2019-03-25T02:15:37.844Z,1.20
2019-03-25T02:18:24.628Z,1.55
2019-03-25T02:21:12.021Z,1.30
2019-03-25T02:23:59.000Z,1.25
2019-03-25T02:26:46.335Z,1.35
2019-03-25T02:29:33.120Z,1.22
2019-03-25T02:32:20.236Z,1.40
2019-03-25T02:35:07.033Z,1.20
2019-03-25T02:37:54.383Z,1.37
2019-03-25T02:40:41.250Z,1.35
2019-03-25T02:43:28.387Z,1.27
2019-03-25T02:46:15.273Z,1.47
2019-03-25T02:49:02.105Z,1.32
2019-03-25T02:51:49.003Z,1.55
2019-03-25T02:54:36.058Z,1.47
2019-03-25T02:57:23.072Z,1.37
2019-03-25T03:00:11.502Z,1.05
2019-03-25T03:02:57.976Z,1.30
2019-03-25T03:05:44.458Z,1.20
2019-03-25T03:08:31.618Z,1.72
2019-03-25T03:11:18.663Z,1.37
2019-03-25T03:14:05.500Z,1.55
2019-03-25T03:16:52.545Z,1.40
2019-03-25T03:19:38.892Z,1.22
2019-03-25T03:22:25.690Z,1.65
2019-03-25T03:25:12.240Z,1.35
2019-03-25T03:27:59.306Z,1.40
2019-03-25T03:30:46.223Z,1.77
2019-03-25T03:33:33.182Z,1.55
2019-03-25T03:36:19.998Z,1.30
2019-03-25T03:39:07.227Z,1.55
2019-03-25T03:41:53.761Z,1.45
2019-03-25T03:44:41.290Z,1.37
2019-03-25T03:47:28.093Z,1.50
2019-03-25T03:50:24.345Z,1.47
2019-03-25T03:53:11.131Z,1.35
2019-03-25T03:56:12.172Z,1.60
2019-03-25T03:58:46.952Z,1.70
2019-03-25T04:01:33.980Z,1.42
2019-03-25T04:04:20.724Z,1.20
2019-03-25T04:07:08.960Z,1.20
2019-03-25T04:09:55.829Z,1.62
2019-03-25T04:12:42.771Z,1.40
2019-03-25T04:15:30.884Z,1.45
2019-03-25T04:18:17.989Z,1.20
2019-03-25T04:21:04.747Z,1.30
2019-03-25T04:23:53.329Z,1.50
2019-03-25T04:26:40.266Z,1.17
2019-03-25T04:29:27.801Z,1.02
2019-03-25T04:32:14.715Z,1.57
2019-03-25T04:35:01.777Z,1.22
2019-03-25T04:37:48.657Z,1.20
2019-03-25T04:40:35.532Z,1.10
2019-03-25T04:43:22.385Z,1.10
2019-03-25T04:46:09.481Z,1.10
2019-03-25T04:48:56.315Z,1.00
2019-03-25T04:51:44.848Z,1.00
2019-03-25T04:54:31.940Z,1.15
2019-03-25T04:57:19.012Z,0.93
2019-03-25T05:00:06.320Z,0.95
2019-03-25T05:02:52.851Z,0.98
2019-03-25T05:05:39.848Z,0.80
2019-03-25T05:08:26.847Z,0.78
2019-03-25T05:11:13.807Z,0.88
2019-03-25T05:14:03.088Z,0.80
2019-03-25T05:16:49.892Z,0.80
2019-03-25T05:19:36.898Z,0.80
2019-03-25T05:22:23.900Z,0.82
2019-03-25T05:25:10.847Z,0.70
2019-03-25T05:27:57.578Z,0.98
2019-03-25T05:30:44.728Z,0.60
2019-03-25T05:33:31.761Z,0.65
2019-03-25T05:36:18.708Z,0.60
2019-03-25T05:39:07.219Z,0.65
2019-03-25T05:41:54.592Z,0.60
2019-03-25T05:44:41.435Z,0.70
2019-03-25T05:47:28.152Z,0.47
2019-03-25T05:50:15.224Z,0.60
2019-03-25T05:53:02.596Z,0.50
2019-03-25T05:55:49.062Z,0.50
2019-03-25T05:58:37.714Z,0.50
2019-03-25T06:01:25.588Z,0.57
2019-03-25T06:04:12.187Z,0.40
2019-03-25T06:06:59.723Z,0.50
2019-03-25T06:09:46.784Z,0.40
2019-03-25T06:12:33.653Z,0.60
2019-03-25T06:15:20.659Z,0.40
2019-03-25T06:18:07.516Z,0.42
2019-03-25T06:20:53.945Z,0.40
2019-03-25T06:23:40.761Z,0.50
2019-03-25T06:26:27.777Z,0.42
2019-03-25T06:29:14.699Z,0.40
2019-03-25T06:32:01.750Z,0.50
2019-03-25T06:34:48.737Z,0.40
2019-03-25T06:37:35.832Z,0.55
2019-03-25T06:40:23.940Z,0.30
2019-03-25T06:43:10.825Z,0.62
2019-03-25T06:45:57.845Z,0.50
2019-03-25T06:48:44.984Z,0.50
2019-03-25T06:51:31.651Z,0.62
2019-03-25T06:54:18.327Z,0.57
2019-03-25T06:57:06.215Z,0.35
2019-03-25T06:59:53.032Z,0.70
2019-03-25T07:02:39.509Z,0.70
2019-03-25T07:05:26.299Z,0.40
2019-03-25T07:08:13.141Z,0.35
2019-03-25T07:10:59.740Z,0.40
2019-03-25T07:13:46.591Z,0.55
2019-03-25T07:16:33.511Z,0.37
2019-03-25T07:19:22.936Z,0.60
2019-03-25T07:25:25.366Z,0.33
2019-03-25T07:28:15.628Z,0.40
2019-03-25T07:30:50.612Z,0.72
2019-03-25T07:33:41.832Z,0.40
2019-03-25T07:36:39.591Z,0.40
2019-03-25T07:39:27.154Z,0.50
2019-03-25T07:42:10.382Z,0.60
2019-03-25T07:44:44.548Z,5.65
2019-03-25T07:47:15.681Z,3.50
2019-03-25T07:49:50.431Z,1.85
2019-03-25T07:52:51.158Z,1.75
2019-03-25T07:55:55.035Z,1.17
2019-03-25T07:59:00.442Z,1.60
2019-03-25T08:01:37.836Z,1.75
2019-03-25T08:04:10.855Z,1.50
2019-03-25T08:06:59.390Z,1.30
2019-03-25T08:09:42.734Z,1.22
2019-03-25T08:12:25.325Z,1.55
2019-03-25T08:15:09.139Z,1.55
2019-03-25T08:17:41.667Z,1.40
2019-03-25T08:20:22.447Z,1.10
2019-03-25T08:23:02.571Z,1.62
2019-03-25T08:25:33.254Z,1.17
2019-03-25T08:28:18.553Z,0.98
2019-03-25T08:30:52.463Z,1.22
2019-03-25T08:33:25.747Z,1.15
2019-03-25T08:36:03.182Z,1.05
2019-03-25T08:38:59.975Z,1.05
2019-03-25T08:41:47.955Z,1.00
2019-03-25T08:44:26.493Z,1.02
2019-03-25T08:47:04.227Z,0.80
2019-03-25T08:49:43.149Z,1.22
2019-03-25T08:52:17.003Z,1.00
2019-03-25T08:54:49.734Z,1.00
2019-03-25T08:57:25.307Z,0.90
2019-03-25T09:00:06.624Z,0.70
2019-03-25T09:03:32.816Z,0.80
2019-03-25T09:06:39.737Z,1.00
2019-03-25T09:09:19.353Z,1.10
2019-03-25T09:12:03.345Z,1.00
2019-03-25T09:14:42.400Z,1.07
2019-03-25T09:17:27.388Z,0.80
2019-03-25T09:20:11.101Z,1.10
2019-03-25T09:22:54.410Z,0.90
2019-03-25T09:25:42.821Z,1.00
2019-03-25T09:28:24.594Z,1.27
2019-03-25T09:31:36.393Z,1.20
2019-03-25T09:34:14.686Z,1.22
2019-03-25T09:37:05.126Z,1.30
2019-03-25T09:40:18.532Z,1.75
2019-03-25T09:42:55.756Z,1.35
2019-03-25T09:45:50.917Z,1.35
2019-03-25T09:49:02.764Z,1.45
2019-03-25T09:51:55.133Z,1.40
2019-03-25T09:54:26.682Z,1.52
2019-03-25T09:57:12.292Z,1.40
2019-03-25T09:59:54.205Z,1.62
2019-03-25T10:02:40.545Z,1.52
2019-03-25T10:05:15.605Z,1.52
2019-03-25T10:08:02.442Z,1.47
2019-03-25T10:10:50.679Z,1.32
2019-03-25T10:13:39.799Z,1.65
2019-03-25T10:16:26.708Z,1.87
2019-03-25T10:19:14.397Z,1.25
2019-03-25T10:22:01.546Z,2.10
2019-03-25T10:24:49.635Z,1.00
2019-03-25T10:27:36.463Z,1.37
2019-03-25T10:30:24.269Z,1.07
2019-03-25T10:33:13.239Z,1.15
2019-03-25T10:36:00.155Z,1.20
2019-03-25T10:38:47.211Z,0.95
2019-03-25T10:41:34.392Z,0.93
2019-03-25T10:44:21.082Z,1.30
2019-03-25T10:47:08.139Z,1.02
2019-03-25T10:49:55.096Z,0.82
2019-03-25T10:52:42.311Z,0.70
2019-03-25T10:55:29.035Z,0.90
2019-03-25T10:58:16.668Z,0.70
2019-03-25T11:01:03.667Z,0.80
2019-03-25T11:03:50.759Z,0.82
2019-03-25T11:06:37.095Z,1.00
2019-03-25T11:09:23.538Z,0.85
2019-03-25T11:15:18.891Z,0.82
2019-03-25T11:18:05.858Z,0.90
2019-03-25T11:20:52.602Z,0.90
2019-03-25T11:23:39.504Z,1.12
2019-03-25T11:26:28.292Z,1.55
2019-03-25T11:29:15.545Z,1.00
2019-03-25T11:32:03.216Z,0.80
2019-03-25T11:34:50.155Z,1.00
2019-03-25T11:37:37.359Z,0.85
2019-03-25T11:40:24.439Z,1.15
2019-03-25T11:43:11.624Z,0.90
2019-03-25T11:45:58.762Z,1.10
2019-03-25T11:48:45.867Z,0.82
2019-03-25T11:51:33.319Z,0.55
2019-03-25T11:54:20.719Z,0.80
2019-03-25T11:57:07.260Z,0.68
2019-03-25T11:59:54.175Z,0.50
2019-03-25T12:02:42.411Z,0.70
2019-03-25T12:05:29.224Z,0.57
2019-03-25T12:08:17.061Z,0.60
2019-03-25T12:11:04.211Z,0.60
2019-03-25T12:13:51.210Z,0.50
2019-03-25T12:16:38.603Z,0.70
2019-03-25T12:19:25.372Z,0.65
2019-03-25T12:22:12.929Z,0.50
2019-03-25T12:24:59.667Z,0.42
2019-03-25T12:27:48.699Z,0.50
2019-03-25T12:30:35.943Z,0.40
2019-03-25T12:33:23.151Z,0.50
2019-03-25T12:36:10.296Z,0.60
2019-03-25T12:38:57.781Z,0.50
2019-03-25T12:41:44.336Z,0.60
2019-03-25T12:44:30.896Z,0.40
2019-03-25T12:47:17.507Z,0.57
2019-03-25T12:50:05.128Z,0.50
2019-03-25T12:52:51.857Z,0.47
2019-03-25T12:55:38.800Z,0.47
2019-03-25T12:58:26.550Z,0.50
2019-03-25T13:01:13.738Z,0.37
2019-03-25T13:04:00.907Z,0.62
2019-03-25T13:06:47.524Z,0.40
2019-03-25T13:09:34.271Z,0.50
2019-03-25T13:12:21.192Z,0.47
2019-03-25T13:15:09.115Z,0.57
2019-03-25T13:17:56.370Z,0.62
2019-03-25T13:20:44.482Z,0.50
2019-03-25T13:23:31.134Z,0.45
2019-03-25T13:26:18.339Z,0.50
2019-03-25T13:29:05.290Z,0.50
2019-03-25T13:31:52.255Z,0.50
2019-03-25T13:34:39.024Z,0.30
2019-03-25T13:37:25.971Z,0.50
2019-03-25T13:40:12.967Z,0.50
2019-03-25T13:42:59.876Z,0.57
2019-03-25T13:45:46.935Z,0.50
2019-03-25T13:48:37.665Z,0.47
2019-03-25T13:51:24.383Z,0.50
2019-03-25T13:54:11.319Z,0.47
2019-03-25T13:56:58.252Z,0.37
2019-03-25T13:59:44.861Z,0.45
2019-03-25T14:02:33.435Z,0.50
2019-03-25T14:05:20.259Z,0.37
2019-03-25T14:08:07.634Z,0.40
2019-03-25T14:10:54.239Z,0.37
2019-03-25T14:13:49.029Z,0.30
2019-03-25T14:16:29.832Z,0.47
2019-03-25T14:19:16.723Z,0.50
2019-03-25T14:22:03.782Z,0.62
2019-03-25T14:24:50.516Z,0.50
2019-03-25T14:27:37.629Z,0.47
2019-03-25T14:30:24.718Z,0.50
2019-03-25T14:33:11.532Z,0.47
2019-03-25T14:35:58.883Z,0.53
2019-03-25T14:38:45.663Z,0.57
2019-03-25T14:41:32.495Z,0.47
2019-03-25T14:44:19.055Z,0.30
2019-03-25T14:47:05.795Z,0.30
2019-03-25T14:49:53.811Z,0.50
2019-03-25T14:52:40.970Z,0.50
2019-03-25T14:55:27.676Z,0.40
2019-03-25T14:58:18.323Z,0.40
2019-03-25T15:01:04.746Z,0.30
2019-03-25T15:03:51.861Z,0.45
2019-03-25T15:06:39.016Z,0.45
2019-03-25T15:09:25.828Z,0.40
2019-03-25T15:12:12.676Z,0.35
2019-03-25T15:14:59.763Z,0.53
2019-03-25T15:17:46.531Z,0.40
2019-03-25T15:20:33.459Z,0.30
2019-03-25T15:23:19.964Z,0.45
2019-03-25T15:26:08.045Z,0.40
2019-03-25T15:28:55.136Z,0.40
2019-03-25T15:31:41.860Z,0.30
2019-03-25T15:34:28.724Z,0.47
2019-03-25T15:37:15.910Z,0.37
2019-03-25T15:40:03.763Z,0.37
2019-03-25T15:42:50.660Z,0.30
2019-03-25T15:45:37.601Z,0.30
2019-03-25T15:48:24.615Z,0.30
2019-03-25T15:51:11.355Z,0.40
2019-03-25T15:54:01.015Z,0.40
2019-03-25T15:56:47.779Z,0.40
2019-03-25T15:59:37.940Z,0.50
2019-03-25T16:02:25.732Z,0.53
2019-03-25T16:05:12.883Z,0.88
2019-03-25T16:07:59.603Z,0.57
2019-03-25T16:10:46.595Z,0.62
2019-03-25T16:13:33.376Z,0.60
2019-03-25T16:16:20.484Z,0.80
2019-03-25T16:19:07.396Z,0.72
2019-03-25T16:21:54.292Z,0.60
2019-03-25T16:24:42.595Z,0.70
2019-03-25T16:27:29.565Z,0.55
2019-03-25T16:30:16.625Z,0.45
2019-03-25T16:33:16.057Z,0.80
2019-03-25T16:36:02.864Z,0.40
2019-03-25T16:38:49.722Z,0.70
2019-03-25T16:41:36.645Z,1.27
2019-03-25T16:44:24.274Z,0.93
2019-03-25T16:47:11.252Z,0.82
2019-03-25T16:49:58.051Z,0.98
2019-03-25T16:52:44.849Z,0.95
2019-03-25T16:55:31.999Z,0.82
2019-03-25T16:58:18.743Z,0.90
2019-03-25T17:01:10.208Z,1.10
2019-03-25T17:03:54.240Z,0.80
2019-03-25T17:06:41.345Z,1.00
2019-03-25T17:09:28.240Z,1.10
2019-03-25T17:12:15.380Z,0.72
2019-03-25T17:15:01.679Z,0.80
2019-03-25T17:17:50.535Z,0.70
2019-03-25T17:20:37.487Z,0.72
2019-03-25T17:23:24.424Z,0.93
2019-03-25T17:26:10.984Z,0.85
2019-03-25T17:28:57.803Z,1.00
2019-03-25T17:31:44.931Z,0.80
2019-03-25T17:34:32.337Z,0.70
2019-03-25T17:37:19.243Z,0.80
2019-03-25T17:40:06.807Z,0.80
2019-03-25T17:42:53.576Z,0.80
2019-03-25T17:45:40.224Z,0.80
2019-03-25T17:48:27.892Z,0.70
2019-03-25T17:51:15.359Z,0.70
2019-03-25T17:54:01.948Z,0.93
2019-03-25T17:56:49.997Z,0.50
2019-03-25T17:59:36.974Z,0.70
2019-03-25T18:02:24.451Z,0.88
2019-03-25T18:05:11.510Z,0.65
2019-03-25T18:07:58.757Z,0.88
2019-03-25T18:10:45.569Z,0.95
2019-03-25T18:13:32.192Z,0.72
2019-03-25T18:16:19.082Z,0.98
2019-03-25T18:19:05.724Z,0.75
2019-03-25T18:21:54.439Z,1.00
2019-03-25T18:24:43.099Z,1.00
2019-03-25T18:27:29.821Z,0.80
2019-03-25T18:30:20.565Z,1.15
2019-03-25T18:33:07.295Z,1.00
2019-03-25T18:35:54.343Z,1.10
2019-03-25T18:38:41.397Z,0.78
2019-03-25T18:41:27.944Z,1.15
2019-03-25T18:44:14.868Z,1.05
2019-03-25T18:47:01.518Z,1.00
2019-03-25T18:49:48.324Z,0.90
2019-03-25T18:52:35.135Z,1.00
2019-03-25T18:55:22.107Z,1.10
2019-03-25T18:58:09.179Z,1.00
2019-03-25T19:00:55.980Z,0.93
2019-03-25T19:03:43.548Z,1.10
2019-03-25T19:06:34.854Z,1.10
2019-03-25T19:09:21.601Z,1.10
2019-03-25T19:12:08.411Z,0.90
2019-03-25T19:14:55.547Z,1.22
2019-03-25T19:17:42.406Z,0.82
2019-03-25T19:20:29.644Z,0.90
2019-03-25T19:23:17.078Z,0.90
2019-03-25T19:26:04.457Z,0.90
2019-03-25T19:28:51.175Z,0.90
2019-03-25T19:31:38.431Z,1.42
2019-03-25T19:34:25.313Z,1.35
2019-03-25T19:37:11.989Z,1.32
2019-03-25T19:39:58.639Z,1.50
2019-03-25T19:42:45.544Z,1.52
2019-03-25T19:45:32.541Z,1.40
2019-03-25T19:48:19.932Z,1.82
2019-03-25T19:51:06.956Z,1.90
2019-03-25T19:53:54.151Z,2.00
2019-03-25T19:56:41.047Z,2.00
2019-03-25T19:59:28.040Z,2.35
2019-03-25T20:02:19.277Z,2.33
2019-03-25T20:05:04.908Z,2.30
2019-03-25T20:07:51.652Z,2.80
2019-03-25T20:10:39.631Z,3.22
2019-03-25T20:13:26.674Z,4.78
2019-03-25T20:16:13.559Z,6.40
2019-03-25T20:19:00.026Z,6.75
2019-03-25T20:21:48.180Z,6.80
2019-03-25T20:24:36.318Z,7.60
2019-03-25T20:27:23.252Z,7.67
2019-03-25T20:30:11.384Z,7.75
2019-03-25T20:32:58.262Z,7.15
2019-03-25T20:35:45.181Z,7.62
2019-03-25T20:38:35.853Z,7.47
2019-03-25T20:41:24.611Z,7.08
2019-03-25T20:44:13.785Z,7.00
2019-03-25T20:47:00.387Z,6.72
2019-03-25T20:49:47.521Z,6.00
2019-03-25T20:52:34.599Z,6.17
2019-03-25T20:55:22.149Z,6.45
2019-03-25T20:58:12.366Z,5.78
2019-03-25T21:00:59.182Z,6.08
2019-03-25T21:03:48.144Z,5.60
2019-03-25T21:06:35.219Z,5.72
2019-03-25T21:09:22.468Z,5.28
2019-03-25T21:12:09.704Z,5.15
2019-03-25T21:14:56.399Z,5.17
2019-03-25T21:17:43.388Z,4.75
2019-03-25T21:20:29.979Z,5.92
2019-03-25T21:23:20.188Z,4.58
2019-03-25T21:26:06.971Z,4.62
2019-03-25T21:28:53.897Z,4.25
2019-03-25T21:31:40.992Z,4.17
2019-03-25T21:34:28.346Z,4.25
2019-03-25T21:37:17.384Z,3.87
2019-03-25T21:40:05.395Z,4.20
2019-03-25T21:42:53.546Z,4.17
2019-03-25T21:45:41.881Z,4.20
2019-03-25T21:48:28.750Z,3.67
2019-03-25T21:51:15.229Z,3.45
2019-03-25T21:54:02.070Z,3.75
2019-03-25T21:56:50.703Z,3.60
2019-03-25T21:59:38.969Z,3.50
2019-03-25T22:02:25.763Z,3.52
2019-03-25T22:05:12.851Z,3.12
2019-03-25T22:08:00.395Z,3.40
2019-03-25T22:10:49.035Z,3.40
2019-03-25T22:13:36.344Z,3.25
2019-03-25T22:16:23.405Z,2.90
2019-03-25T22:19:10.983Z,3.20
2019-03-25T22:21:59.320Z,2.90
2019-03-25T22:24:46.451Z,3.05
2019-03-25T22:27:37.545Z,2.58
2019-03-25T22:30:26.016Z,3.12
2019-03-25T22:33:24.917Z,2.70
2019-03-25T22:36:01.005Z,2.80
2019-03-25T22:38:47.659Z,2.58
2019-03-25T22:41:36.006Z,2.35
2019-03-25T22:44:22.668Z,2.60
2019-03-25T22:47:09.783Z,2.15
2019-03-25T22:49:57.510Z,2.40
2019-03-25T22:52:44.459Z,2.47
2019-03-25T22:55:31.535Z,2.17
2019-03-25T22:58:18.503Z,2.60
2019-03-25T23:01:05.879Z,1.92
2019-03-25T23:03:52.503Z,2.00
2019-03-25T23:06:39.208Z,1.95
2019-03-25T23:09:25.857Z,2.25
2019-03-25T23:12:14.199Z,2.05
2019-03-25T23:15:01.565Z,2.15
2019-03-25T23:17:49.269Z,1.98
2019-03-25T23:20:35.752Z,1.60
2019-03-25T23:23:22.744Z,1.82
2019-03-25T23:26:10.255Z,2.00
2019-03-25T23:28:57.039Z,1.80
2019-03-25T23:31:43.624Z,1.80
2019-03-25T23:34:30.447Z,1.47
2019-03-25T23:37:17.627Z,1.47
2019-03-25T23:40:04.887Z,1.80
2019-03-25T23:42:51.663Z,1.65
2019-03-25T23:45:38.500Z,1.55
2019-03-25T23:48:25.619Z,1.45
2019-03-25T23:51:12.556Z,1.77
2019-03-25T23:54:12.219Z,1.50
2019-03-25T23:56:58.660Z,1.50
2019-03-25T23:59:45.318Z,1.50
